Latest Coastal Weather Observations for Cape Willoughby

IDS60701

Issued at 1:55 am CST Friday 3 October 2014 (issued every 10 minutes, with the page automatically refreshed every 10 minutes)

About coastal observations | Map of coastal stations | Coastal observations for SA | Marine services | Other Formats
Station Details ID: 022803 Name: CAPE WILLOUGHBY Lat: -35.84 Lon: 138.13 Height: 55.0 m
Data from the previous 72 hours. | See also: Recent months at Cape Willoughby
Date/Time
CST
Temp

°C
Wind Pressure Rain
since 9am
mm
Weather Cloud Vis
km
Sea
Height
m
Swell
Dir
 
Speed
knots
Gust
knots
hPa Trend Height
m
Period
s
Dir
03/01:30am 11.9 E 10 13 1023.4 - 0.0 - - - - - - -
03/01:00am 12.0 E 11 14 1023.8 - 0.0 - - - - - - -
03/12:30am 11.9 E 9 11 1024.3 - 0.0 - - - - - - -
03/12:00am 12.0 E 10 13 1024.5 - 0.0 - - - - - - -
 
Date/Time
CST
Temp

°C
Wind Pressure Rain
since 9am
mm
Weather Cloud Vis
km
Sea
Height
m
Swell
Dir
 
Speed
knots
Gust
knots
hPa Trend Height
m
Period
s
Dir
02/11:30pm 12.2 E 10 13 1024.9 - 0.0 - - - - - - -
02/11:00pm 12.1 ESE 8 12 1025.4 - 0.0 - - - - - - -
02/10:30pm 12.4 E 8 11 1025.6 - 0.0 - - - - - - -
02/10:00pm 12.5 SE 8 11 1025.7 - 0.0 - - - - - - -
02/09:30pm 12.5 SE 9 12 1026.0 - 0.0 - - - - - - -
02/09:00pm 12.6 ESE 3 7 1026.1 - 0.0 - - - - - - -
02/08:30pm 12.7 SE 6 11 1026.1 - 0.0 - - - - - - -
02/08:00pm 12.7 SE 8 11 1026.1 - 0.0 - - - - - - -
02/07:30pm 12.8 SE 6 9 1025.9 - 0.0 - - - - - - -
02/07:00pm 13.0 ESE 6 10 1025.7 - 0.0 - - - - - - -
02/06:30pm 13.0 S 6 9 1025.7 - 0.0 - - - - - - -
02/06:00pm 13.2 SSE 6 10 1025.7 - 0.0 - - - - - - -
02/05:30pm 13.2 SSE 8 11 1025.6 - 0.0 - - - - - - -
02/05:00pm 13.7 S 9 13 1025.7 - 0.0 - - - - - - -
02/04:30pm 13.7 S 9 13 1025.5 - 0.0 - - - - - - -
02/04:00pm 13.9 S 6 11 1025.7 - 0.0 - - - - - - -
02/03:30pm 14.0 S 9 13 1025.8 - 0.0 - - - - - - -
02/03:00pm 14.1 S 7 10 1026.0 - 0.0 - - - - - - -
02/02:30pm 14.4 S 7 9 1026.3 - 0.0 - - - - - - -
02/02:00pm 14.7 S 8 9 1026.6 - 0.0 - - - - - - -
02/01:30pm 14.7 S 7 9 1026.8 - 0.0 - - - - - - -
02/01:00pm 14.9 S 7 9 1027.2 - 0.0 - - - - - - -
02/12:30pm 14.6 S 7 9 1027.5 - 0.0 - - - - - - -
02/12:00pm 14.4 S 6 9 1027.7 - 0.0 - - - - - - -
02/11:30am 14.1 S 6 9 1028.0 - 0.0 - - - - - - -
02/11:00am 14.2 SSW 3 8 1028.2 - 0.0 - - - - - - -
02/10:30am 14.4 S 3 6 1028.5 - 0.0 - - - - - - -
02/10:00am 13.9 SSW 4 7 1028.7 - 0.0 - - - - - - -
02/09:30am 13.5 S 5 8 1028.8 - 0.0 - - - - - - -
02/09:00am 13.4 S 5 8 1028.9 - 0.0 - - - - - - -
02/08:30am 13.3 S 10 13 1028.6 - 0.0 - - - - - - -
02/08:00am 13.5 SW 6 11 1028.6 - 0.0 - - - - - - -
02/07:30am 13.2 S 5 7 1028.5 - 0.0 - - - - - - -
02/07:00am 12.9 SSW 6 10 1028.2 - 0.0 - - - - - - -
02/06:30am 12.8 SW 8 12 1027.8 - 0.0 - - - - - - -
02/06:00am 12.6 SW 5 12 1027.5 - 0.0 - - - - - - -
02/05:30am 12.7 SSW 5 10 1027.3 - 0.0 - - - - - - -
02/05:00am 12.6 SSW 10 13 1027.1 - 0.0 - - - - - - -
02/04:30am 13.0 S 5 10 1027.0 - 0.0 - - - - - - -
02/04:00am 12.9 SSW 8 11 1026.7 - 0.0 - - - - - - -
02/03:30am 12.9 SSW 8 14 1026.8 - 0.0 - - - - - - -
02/03:00am 12.9 S 4 7 1026.9 - 0.0 - - - - - - -
02/02:30am 12.7 SW 7 13 1027.1 - 0.0 - - - - - - -
02/02:00am 13.0 SSW 9 13 1027.3 - 0.0 - - - - - - -
02/01:30am 13.1 S 7 12 1027.5 - 0.0 - - - - - - -
02/01:00am 13.1 S 7 12 1027.9 - 0.0 - - - - - - -
02/12:30am 13.2 S 7 10 1028.2 - 0.0 - - - - - - -
02/12:00am 12.9 SW 9 13 1028.4 - 0.0 - - - - - - -
 
Date/Time
CST
Temp

°C
Wind Pressure Rain
since 9am
mm
Weather Cloud Vis
km
Sea
Height
m
Swell
Dir
 
Speed
knots
Gust
knots
hPa Trend Height
m
Period
s
Dir
01/11:30pm 12.9 S 4 7 1028.6 - 0.0 - - - - - - -
01/11:00pm 13.0 S 7 9 1028.6 - 0.0 - - - - - - -
01/10:30pm 12.8 S 8 10 1028.7 - 0.0 - - - - - - -
01/10:00pm 12.7 S 7 11 1028.8 - 0.0 - - - - - - -
01/09:30pm 12.7 S 7 12 1028.8 - 0.0 - - - - - - -
01/09:00pm 12.8 S 9 13 1028.7 - 0.0 - - - - - - -
01/08:30pm 13.0 S 10 14 1028.8 - 0.0 - - - - - - -
01/08:00pm 13.0 S 10 15 1028.7 - 0.0 - - - - - - -
01/07:30pm 12.9 S 11 16 1028.4 - 0.0 - - - - - - -
01/07:00pm 12.9 S 11 15 1028.2 - 0.0 - - - - - - -
01/06:30pm 12.9 S 8 12 1028.1 - 0.0 - - - - - - -
01/06:00pm 12.9 SSW 7 11 1027.9 - 0.0 - - - - - - -
01/05:30pm 13.3 SSW 6 9 1027.8 - 0.0 - - - - - - -
01/05:00pm 13.3 S 7 9 1027.8 - 0.0 - - - - - - -
01/04:30pm 13.4 S 9 12 1027.6 - 0.0 - - - - - - -
01/04:00pm 13.6 S 7 10 1027.7 - 0.0 - - - - - - -
01/03:30pm 13.6 S 10 13 1027.7 - 0.0 - - - - - - -
01/03:00pm 13.9 S 8 13 1027.8 - 0.0 - - - - - - -
01/02:30pm 13.7 S 9 12 1028.0 - 0.0 - - - - - - -
01/02:00pm 14.0 S 7 9 1028.2 - 0.0 - - - - - - -
01/01:30pm 14.0 S 7 10 1028.2 - 0.0 - - - - - - -
01/01:00pm 14.7 S 8 11 1028.4 - 0.0 - - - - - - -
01/12:30pm 14.0 S 8 10 1028.7 - 0.0 - - - - - - -
01/12:00pm 13.9 S 9 12 1028.8 - 0.0 - - - - - - -
01/11:30am 13.9 S 11 14 1028.9 - 0.0 - - - - - - -
01/11:00am 14.2 S 10 14 1028.9 - 0.0 - - - - - - -
01/10:30am 13.4 S 10 14 1028.9 - 0.0 - - - - - - -
01/10:00am 13.5 S 12 16 1028.7 - 0.0 - - - - - - -
01/09:30am 13.4 S 12 16 1028.5 - 0.0 - - - - - - -
01/09:00am 13.0 S 13 17 1028.0 - 0.8 - - - - - - -
01/08:30am 12.8 S 11 15 1027.6 - 0.8 - - - - - - -
01/08:00am 12.8 S 10 15 1027.2 - 0.8 - - - - - - -
01/07:30am 12.9 S 13 16 1026.7 - 0.8 - - - - - - -
01/07:00am 12.6 S 14 20 1026.3 - 0.8 - - - - - - -
01/06:30am 12.3 S 12 17 1026.1 - 0.8 - - - - - - -
01/06:00am 12.1 SSW 17 21 1025.6 - 0.8 - - - - - - -
01/05:30am 12.2 S 13 22 1025.1 - 0.8 - - - - - - -
01/05:00am 12.0 SSW 14 23 1024.6 - 0.8 - - - - - - -
01/04:30am 12.2 S 14 21 1024.3 - 0.8 - - - - - - -
01/04:00am 12.2 S 17 23 1023.9 - 0.8 - - - - - - -
01/03:30am 11.9 S 13 20 1023.5 - 0.8 - - - - - - -
01/03:00am 12.3 S 14 22 1023.4 - 0.8 - - - - - - -
01/02:30am 12.2 SSW 18 23 1023.3 - 0.8 - - - - - - -
01/02:00am 12.1 SSW 21 26 1023.1 - 0.8 - - - - - - -
01/01:30am 12.2 SSW 18 26 1023.0 - 0.8 - - - - - - -
01/01:00am 12.4 S 18 24 1022.8 - 0.8 - - - - - - -
01/12:30am 12.5 SSW 17 23 1022.9 - 0.8 - - - - - - -
01/12:00am 12.7 SSW 20 26 1022.7 - 0.8 - - - - - - -
 
Date/Time
CST
Temp

°C
Wind Pressure Rain
since 9am
mm
Weather Cloud Vis
km
Sea
Height
m
Swell
Dir
 
Speed
knots
Gust
knots
hPa Trend Height
m
Period
s
Dir
30/11:30pm 12.8 SSW 20 25 1022.5 - 0.8 - - - - - - -
30/11:00pm 12.6 SSW 17 22 1022.2 - 0.8 - - - - - - -
30/10:30pm 12.5 SW 17 23 1022.1 - 0.8 - - - - - - -
30/10:00pm 12.6 SSW 20 26 1021.8 - 0.8 - - - - - - -
30/09:30pm 12.6 SSW 19 23 1021.3 - 0.8 - - - - - - -
30/09:00pm 12.2 SSW 21 27 1021.0 - 0.8 Recent precip. - - - - - -
30/08:30pm 12.3 SSW 19 27 1020.6 - 0.8 - - - - - - -
30/08:26pm 11.9 SW 15 25 1020.6 - 0.8 - - - - - - -
30/08:00pm 12.2 SW 18 26 1020.6 - 0.6 - - - - - - -
30/07:30pm 12.6 SW 21 27 1019.6 - 0.6 - - - - - - -
30/07:25pm 12.3 SW 15 27 1019.5 - 0.6 - - - - - - -
30/07:00pm 12.0 SW 16 25 1019.4 - 0.6 - - - - - - -
30/06:56pm 12.1 WSW 15 25 1019.2 - 0.4 - - - - - - -
30/06:30pm 11.7 WSW 16 21 1018.7 - 0.4 - - - - - - -
30/06:00pm 12.6 SW 25 34 1018.4 - 0.4 Rain - - - - - -
30/05:51pm 13.1 SSW 24 28 1017.8 - 0.2 - - - - - - -
30/05:30pm 14.3 WSW 19 25 1017.5 - 0.2 - - - - - - -
30/05:04pm 14.2 WSW 15 25 1017.2 - 0.2 - - - - - - -
30/05:00pm 14.3 WSW 16 22 1017.2 - 0.2 - - - - - - -
30/04:30pm 14.7 WSW 23 30 1016.7 - 0.2 - - - - - - -
30/04:00pm 15.4 SW 21 29 1016.1 - 0.2 - - - - - - -
30/03:30pm 15.9 WSW 23 32 1015.7 - 0.2 - - - - - - -
30/03:05pm 16.0 SW 25 35 1015.4 - 0.2 - - - - - - -
30/03:00pm 15.9 WSW 27 35 1015.3 - 0.2 - - - - - - -
30/02:30pm 15.9 WSW 26 35 1014.9 - 0.2 - - - - - - -
30/02:11pm 16.3 SW 24 35 1014.6 - 0.2 - - - - - - -
30/02:00pm 16.1 SW 27 33 1014.3 - 0.2 - - - - - - -
30/01:35pm 16.4 SW 24 34 1014.2 - 0.2 - - - - - - -
30/01:30pm 16.0 SW 25 35 1014.1 - 0.2 - - - - - - -
30/01:16pm 15.8 WSW 22 33 1014.1 - 0.2 - - - - - - -
30/01:00pm 15.3 SW 23 33 1014.1 - 0.2 - - - - - - -
30/12:30pm 14.4 WSW 21 32 1013.9 - 0.2 - - - - - - -
30/12:12pm 13.7 WSW 21 35 1013.6 - 0.2 - - - - - - -
30/12:00pm 13.8 WSW 25 35 1013.5 - 0.0 - - - - - - -
30/11:30am 16.5 WSW 27 38 1012.6 - 0.0 - - - - - - -
30/11:29am 16.4 WSW 27 38 1012.5 - 0.0 - - - - - - -
30/11:27am 16.3 WSW 23 31 1012.6 - 0.0 - - - - - - -
30/11:00am 15.0 W 20 25 1012.7 - 0.0 - - - - - - -
30/10:58am 14.8 W 20 25 1012.6 - 0.0 - - - - - - -
30/10:46am 14.7 W 31 41 1012.3 - 0.0 - - - - - - -
30/10:45am 14.9 W 30 38 1012.4 - 0.0 - - - - - - -
30/10:32am 17.8 W 20 30 1011.8 - 0.0 - - - - - - -
30/10:30am 17.6 W 21 30 1011.9 - 0.0 - - - - - - -
30/10:02am 18.8 W 24 35 1011.5 - 0.0 - - - - - - -
30/10:00am 18.2 W 25 34 1011.6 - 0.0 - - - - - - -
30/09:44am 17.1 WNW 19 29 1011.7 - 0.0 - - - - - - -
30/09:30am 16.1 WNW 21 30 1011.6 - 0.0 - - - - - - -
30/09:27am 16.4 WNW 19 29 1011.5 - 0.0 - - - - - - -
30/09:00am 17.4 WNW 18 27 1011.2 - 0.0 - - - - - - -
30/08:30am 17.4 WNW 19 25 1011.0 - 0.0 - - - - - - -
30/08:00am 16.4 NW 19 25 1010.8 - 0.0 - - - - - - -
30/07:30am 15.9 NW 17 25 1010.7 - 0.0 - - - - - - -
30/07:00am 15.2 NW 18 30 1010.6 - 0.0 - - - - - - -
30/06:58am 15.1 NW 18 30 1010.7 - 0.0 - - - - - - -
30/06:30am 14.7 NW 16 21 1010.4 - 0.0 - - - - - - -
30/06:00am 14.2 NNW 17 22 1009.7 - 0.0 - - - - - - -
30/05:30am 14.2 NNW 19 24 1009.5 - 0.0 - - - - - - -
30/05:00am 14.1 NNW 20 25 1009.4 - 0.0 - - - - - - -
30/04:30am 13.9 NNW 16 23 1009.6 - 0.0 - - - - - - -
30/04:00am 14.0 NNW 17 25 1009.4 - 0.0 - - - - - - -
30/03:30am 13.9 NNW 13 17 1009.3 - 0.0 - - - - - - -
30/03:00am 13.5 NW 12 15 1010.1 - 0.0 - - - - - - -
30/02:30am 13.9 NW 14 17 1010.3 - 0.0 - - - - - - -
30/02:00am 14.1 NNW 15 20 1010.5 - 0.0 - - - - - - -

Other Formats:

Comma delimited format used in spreadsheet applications
http://www.bom.gov.au/fwo/IDS60701/IDS60701.94822.axf

JavaScript Object Notation format (JSON) in row-major order
http://www.bom.gov.au/fwo/IDS60701/IDS60701.94822.json